Time;durP1;ratioP1;P1;durP2;ratioP2;P2;SDS_P1;SDS_P2;PMS_P1;PMS_P2;Temp;Humidity;BMP_temperature;BMP_pressure;BME280_temperature;BME280_humidity;BME280_pressure;Samples;Min_cycle;Max_cycle;Signal;HPM_P1;HPM_P2
2023/07/20 00:04:52;;;;;;;9.40;5.00;;;;;;;23.32;50.90;98218.64;223758;181;138408;-63
2023/07/20 00:09:57;;;;;;;10.40;5.00;;;;;;;23.30;51.26;98215.45;223723;181;136389;-62
2023/07/20 00:15:09;;;;;;;7.10;4.30;;;;;;;23.23;51.46;98209.04;223691;181;146717;-63
2023/07/20 00:20:13;;;;;;;7.40;3.80;;;;;;;23.10;51.78;98208.48;223804;181;138513;-63
2023/07/20 00:25:16;;;;;;;7.70;4.20;;;;;;;23.02;52.16;98210.82;223764;181;136445;-62
2023/07/20 00:30:19;;;;;;;7.90;4.40;;;;;;;22.94;53.05;98208.77;223752;181;145922;-62
2023/07/20 00:35:23;;;;;;;8.60;4.70;;;;;;;22.81;53.58;98203.63;223776;181;139335;-63
2023/07/20 00:40:26;;;;;;;7.20;4.20;;;;;;;22.73;53.49;98208.51;223683;181;136701;-63
2023/07/20 00:45:30;;;;;;;6.70;4.10;;;;;;;22.67;53.68;98199.93;223797;181;145326;-62
2023/07/20 00:50:34;;;;;;;10.20;4.70;;;;;;;22.62;53.80;98198.17;223702;181;138543;-62
2023/07/20 00:55:38;;;;;;;10.00;4.70;;;;;;;22.58;53.72;98197.84;223801;181;137211;-62
2023/07/20 01:02:11;;;;;;;6.60;4.30;;;;;;;22.57;53.80;98202.54;221356;193;666292;-63
2023/07/20 01:08:04;;;;;;;10.10;4.70;;;;;;;22.55;53.74;98210.73;223394;186;136612;-63
2023/07/20 01:13:09;;;;;;;9.40;4.20;;;;;;;22.51;53.83;98206.31;223423;185;144896;-63
2023/07/20 01:18:14;;;;;;;9.70;4.90;;;;;;;22.44;54.22;98212.21;223449;181;138506;-63
2023/07/20 01:24:06;;;;;;;10.50;4.80;;;;;;;22.39;54.67;98219.33;223774;182;136850;-63
2023/07/20 01:29:23;;;;;;;14.10;5.10;;;;;;;22.26;55.24;98232.52;223652;183;143516;-62
2023/07/20 01:34:27;;;;;;;9.60;4.60;;;;;;;22.06;56.16;98261.06;223660;182;139351;-63
2023/07/20 01:39:33;;;;;;;6.60;4.20;;;;;;;21.88;56.07;98259.11;223770;182;136490;-63
2023/07/20 01:44:37;;;;;;;6.80;4.30;;;;;;;21.77;55.83;98269.04;223796;182;143476;-62
2023/07/20 01:49:41;;;;;;;8.10;4.30;;;;;;;21.70;55.56;98270.98;223774;182;138823;-63
2023/07/20 01:54:44;;;;;;;8.60;4.50;;;;;;;21.65;55.24;98273.56;223807;182;136538;-62
2023/07/20 02:02:08;;;;;;;8.70;4.20;;;;;;;21.65;54.62;98261.07;221793;193;665915;-63
2023/07/20 02:07:11;;;;;;;6.80;3.80;;;;;;;21.60;54.24;98267.48;223662;183;136360;-64
2023/07/20 02:12:14;;;;;;;7.80;3.80;;;;;;;21.58;54.52;98258.54;223812;183;143892;-64
2023/07/20 02:17:18;;;;;;;6.90;3.40;;;;;;;21.59;54.31;98252.05;223767;183;138474;-64
2023/07/20 02:22:21;;;;;;;7.10;4.10;;;;;;;21.60;53.92;98241.66;223631;183;137000;-64
2023/07/20 02:27:25;;;;;;;7.90;3.70;;;;;;;21.60;53.83;98242.92;223698;183;144912;-63
2023/07/20 02:32:28;;;;;;;8.70;3.80;;;;;;;21.63;53.56;98234.98;223642;183;138572;-64
2023/07/20 02:37:32;;;;;;;5.70;3.60;;;;;;;21.65;53.43;98228.27;223708;183;136765;-63
2023/07/20 02:42:35;;;;;;;8.60;3.80;;;;;;;21.67;53.29;98224.63;223731;183;143472;-63
2023/07/20 02:47:38;;;;;;;8.10;3.80;;;;;;;21.69;53.48;98219.45;223809;183;138376;-64
2023/07/20 02:52:42;;;;;;;7.50;3.60;;;;;;;21.71;53.54;98240.30;223765;182;137013;-64
2023/07/20 02:57:45;;;;;;;7.40;3.70;;;;;;;21.74;53.49;98247.25;223733;182;145824;-63
2023/07/20 03:02:49;;;;;;;8.00;3.50;;;;;;;21.72;53.33;98255.66;223688;183;139130;-64
2023/07/20 03:07:52;;;;;;;9.30;4.00;;;;;;;21.73;53.34;98254.93;223645;183;136518;-64
2023/07/20 03:12:55;;;;;;;6.10;3.80;;;;;;;21.72;53.49;98256.42;223521;182;145626;-63
2023/07/20 03:17:59;;;;;;;6.80;3.80;;;;;;;21.72;53.88;98272.55;223667;183;139549;-64
2023/07/20 03:23:04;;;;;;;6.00;3.70;;;;;;;21.69;53.91;98278.36;223760;183;139832;-63
2023/07/20 03:28:08;;;;;;;10.00;3.90;;;;;;;21.61;54.18;98286.16;223647;184;144597;-64
2023/07/20 03:33:11;;;;;;;9.20;3.70;;;;;;;21.56;53.80;98290.54;223630;184;138648;-63
2023/07/20 03:38:14;;;;;;;8.60;3.80;;;;;;;21.53;53.86;98292.54;223702;180;137589;-63
2023/07/20 03:43:18;;;;;;;10.00;3.60;;;;;;;21.49;53.86;98296.60;223660;183;145927;-63
2023/07/20 03:48:23;;;;;;;7.70;3.70;;;;;;;21.46;54.42;98309.91;223673;183;138276;-63
2023/07/20 03:53:26;;;;;;;7.30;3.40;;;;;;;21.43;55.20;98313.04;223768;183;137171;-63
2023/07/20 03:58:30;;;;;;;9.20;3.70;;;;;;;21.37;55.95;98318.92;223694;183;146888;-64
2023/07/20 04:03:35;;;;;;;5.80;3.80;;;;;;;21.32;56.46;98351.89;223644;182;138447;-63
2023/07/20 04:08:38;;;;;;;9.10;4.20;;;;;;;21.21;57.00;98352.58;223712;183;136172;-64
2023/07/20 04:13:42;;;;;;;6.90;3.90;;;;;;;21.06;57.17;98376.94;223669;183;145315;-63
2023/07/20 04:18:45;;;;;;;9.30;3.60;;;;;;;20.93;57.78;98382.14;223670;182;138463;-64
2023/07/20 04:23:48;;;;;;;9.90;4.20;;;;;;;20.83;58.45;98376.71;223696;183;140202;-64
2023/07/20 04:28:52;;;;;;;7.40;3.90;;;;;;;20.73;58.89;98386.67;223732;183;145255;-63
2023/07/20 04:34:12;;;;;;;5.50;3.60;;;;;;;20.63;59.09;98409.96;223619;183;139200;-68
2023/07/20 04:39:16;;;;;;;6.40;3.40;;;;;;;20.57;59.23;98422.02;223739;183;136657;-63
2023/07/20 04:44:36;;;;;;;8.70;3.80;;;;;;;20.57;59.41;98428.64;223694;183;145289;-62
2023/07/20 04:49:40;;;;;;;5.70;3.50;;;;;;;20.59;59.31;98431.51;223667;183;138194;-62
2023/07/20 04:54:43;;;;;;;6.10;3.40;;;;;;;20.62;59.13;98439.64;223734;183;136765;-60
2023/07/20 05:02:07;;;;;;;7.50;3.30;;;;;;;20.71;58.32;98457.39;221389;192;665237;-63
2023/07/20 05:07:11;;;;;;;6.20;3.70;;;;;;;20.67;58.06;98458.35;223349;186;137148;-63
2023/07/20 05:12:14;;;;;;;9.20;3.60;;;;;;;20.66;58.25;98466.54;223651;183;143901;-63
2023/07/20 05:17:19;;;;;;;10.40;5.50;;;;;;;20.71;58.54;98472.16;223483;183;138795;-63
2023/07/20 05:22:24;;;;;;;6.10;2.80;;;;;;;20.72;57.92;98473.27;223738;182;136120;-63
2023/07/20 05:27:27;;;;;;;6.70;3.10;;;;;;;20.74;57.64;98472.39;223793;181;143761;-63
2023/07/20 05:32:30;;;;;;;6.60;2.90;;;;;;;20.75;57.44;98477.09;223839;180;138189;-62
2023/07/20 05:37:34;;;;;;;5.40;3.20;;;;;;;20.77;57.80;98478.70;223918;181;137316;-63
2023/07/20 05:42:37;;;;;;;7.70;3.10;;;;;;;20.78;57.83;98469.88;223852;181;143180;-63
2023/07/20 05:47:41;;;;;;;5.80;2.60;;;;;;;20.82;57.58;98447.31;223802;181;138102;-63
2023/07/20 05:52:46;;;;;;;5.90;2.90;;;;;;;20.78;57.29;98454.98;223977;181;137475;-63
2023/07/20 05:57:49;;;;;;;6.20;3.00;;;;;;;20.83;56.97;98452.04;223708;180;145174;-63
2023/07/20 06:02:54;;;;;;;7.90;2.70;;;;;;;20.87;56.71;98456.96;223732;181;138564;-63
2023/07/20 06:08:00;;;;;;;5.90;2.50;;;;;;;20.88;56.52;98455.05;223662;182;137271;-63
2023/07/20 06:13:04;;;;;;;7.70;2.70;;;;;;;20.95;55.89;98454.67;223737;182;147437;-62
2023/07/20 06:18:07;;;;;;;4.00;2.20;;;;;;;20.98;54.97;98452.26;223694;181;138458;-64
2023/07/20 06:23:10;;;;;;;4.90;2.40;;;;;;;20.95;54.88;98453.89;223752;181;136375;-64
2023/07/20 06:28:14;;;;;;;3.80;2.10;;;;;;;20.95;54.84;98462.88;223794;181;145307;-62
2023/07/20 06:33:17;;;;;;;5.30;2.70;;;;;;;21.00;54.83;98455.90;223756;182;139088;-63
2023/07/20 06:38:20;;;;;;;6.00;2.60;;;;;;;20.99;54.54;98440.30;223697;181;136687;-63
2023/07/20 06:43:26;;;;;;;5.90;3.10;;;;;;;20.98;55.29;98448.70;223728;181;145713;-64
2023/07/20 06:48:33;;;;;;;6.30;2.50;;;;;;;21.00;54.96;98465.98;223705;182;139506;-64
2023/07/20 06:53:59;;;;;;;4.00;2.10;;;;;;;20.94;54.52;98464.78;223816;181;136336;-63
2023/07/20 06:59:03;;;;;;;3.40;2.20;;;;;;;20.92;54.58;98458.98;223789;181;144993;-64
2023/07/20 07:04:06;;;;;;;5.10;2.50;;;;;;;20.89;55.19;98452.77;223715;182;138860;-64
2023/07/20 07:09:09;;;;;;;8.90;2.50;;;;;;;21.03;55.57;98453.52;223696;181;137263;-64
2023/07/20 07:14:13;;;;;;;4.60;2.60;;;;;;;21.15;54.91;98460.33;223776;181;145475;-65
2023/07/20 07:19:20;;;;;;;6.30;2.80;;;;;;;21.20;54.81;98463.34;223721;181;139008;-64
2023/07/20 07:24:23;;;;;;;5.90;2.90;;;;;;;21.27;55.11;98469.14;223762;181;136320;-63
2023/07/20 07:29:27;;;;;;;6.60;2.70;;;;;;;21.33;55.11;98467.75;223765;183;145699;-63
2023/07/20 07:34:34;;;;;;;10.30;3.20;;;;;;;21.37;55.42;98464.59;223632;181;138889;-63
2023/07/20 07:39:37;;;;;;;7.10;3.30;;;;;;;21.42;55.21;98459.56;223833;181;137558;-63
2023/07/20 07:44:40;;;;;;;4.70;3.40;;;;;;;21.41;55.59;98469.08;223727;181;145294;-64
2023/07/20 07:49:43;;;;;;;7.70;3.80;;;;;;;21.44;55.37;98472.11;223694;181;139473;-61
2023/07/20 07:54:49;;;;;;;;;;;;;;;21.51;55.29;98463.91;223726;181;137065;-64
2023/07/20 07:59:52;;;;;;;9.10;3.70;;;;;;;21.61;55.41;98466.92;223763;181;145003;-63
2023/07/20 08:04:55;;;;;;;5.20;2.70;;;;;;;21.62;54.80;98476.36;223729;182;138173;-63
2023/07/20 08:10:00;;;;;;;6.30;3.20;;;;;;;21.63;54.85;98473.71;223665;181;136439;-64
2023/07/20 08:15:04;;;;;;;5.90;3.20;;;;;;;21.76;54.82;98478.80;223677;181;145031;-62
2023/07/20 08:20:11;;;;;;;6.30;3.80;;;;;;;21.86;54.61;98484.73;223573;181;138123;-64
2023/07/20 08:25:15;;;;;;;6.80;3.70;;;;;;;21.95;54.39;98489.23;223695;182;137014;-63
2023/07/20 08:30:22;;;;;;;7.50;3.70;;;;;;;21.98;54.56;98493.98;223711;182;145111;-64
2023/07/20 08:35:25;;;;;;;7.10;3.20;;;;;;;22.03;54.58;98495.53;223713;181;139895;-64
2023/07/20 08:40:28;;;;;;;9.40;3.20;;;;;;;22.05;54.59;98497.61;223766;181;137636;-63
2023/07/20 08:45:34;;;;;;;5.60;3.50;;;;;;;22.15;54.69;98502.23;223794;181;146211;-65
2023/07/20 08:50:39;;;;;;;6.10;3.30;;;;;;;22.23;54.85;98505.97;223689;181;138834;-65
2023/07/20 08:55:46;;;;;;;6.70;3.50;;;;;;;22.39;54.72;98501.48;223691;182;138433;-60
2023/07/20 09:02:16;;;;;;;5.40;3.20;;;;;;;22.54;54.05;98500.83;221508;193;667097;-65
2023/07/20 09:07:24;;;;;;;5.40;2.70;;;;;;;22.60;53.72;98500.06;223768;182;136068;-65
2023/07/20 09:12:27;;;;;;;4.40;2.10;;;;;;;22.71;53.37;98496.13;223736;182;143763;-65
2023/07/20 09:17:30;;;;;;;3.40;2.20;;;;;;;22.77;51.80;98500.35;223694;183;138654;-64
2023/07/20 09:22:34;;;;;;;5.90;2.20;;;;;;;22.74;51.33;98497.55;223771;183;136459;-63
2023/07/20 09:27:39;;;;;;;4.80;2.10;;;;;;;22.76;51.15;98492.06;223740;182;143457;-63
2023/07/20 09:32:44;;;;;;;;;;;;;;;22.88;50.84;98488.03;223693;182;138383;-63
2023/07/20 09:38:00;;;;;;;5.10;1.90;;;;;;;23.00;50.43;98482.96;223761;183;127278;-63
2023/07/20 09:43:10;;;;;;;3.90;1.70;;;;;;;23.04;49.89;98481.30;223658;183;143927;-64
2023/07/20 09:48:16;;;;;;;3.50;2.00;;;;;;;23.05;49.63;98482.20;223766;182;139186;-64
2023/07/20 09:53:24;;;;;;;4.50;1.80;;;;;;;23.11;49.21;98481.36;223692;182;136400;-64
2023/07/20 09:58:30;;;;;;;6.60;1.70;;;;;;;23.09;49.24;98492.19;223691;182;145316;-63
2023/07/20 10:03:37;;;;;;;6.40;1.90;;;;;;;23.26;49.66;98492.73;223532;183;138672;-62
2023/07/20 10:08:41;;;;;;;4.20;1.90;;;;;;;23.51;49.88;98490.45;223689;182;137186;-65
2023/07/20 10:13:52;;;;;;;5.90;2.20;;;;;;;23.62;48.98;98492.45;223642;183;145367;-66
2023/07/20 10:19:01;;;;;;;5.80;1.70;;;;;;;23.77;48.08;98487.16;223598;183;138268;-66
2023/07/20 10:24:05;;;;;;;3.20;1.80;;;;;;;24.02;47.49;98489.05;223569;182;136903;-65
2023/07/20 10:29:09;;;;;;;3.30;1.70;;;;;;;23.95;46.98;98491.48;223680;182;145160;-65
2023/07/20 10:34:12;;;;;;;3.20;1.70;;;;;;;23.81;47.22;98492.06;223572;183;138858;-66
2023/07/20 10:39:27;;;;;;;5.40;1.80;;;;;;;24.03;47.68;98490.40;223607;183;137209;-65
2023/07/20 10:44:31;;;;;;;3.10;1.70;;;;;;;24.41;46.90;98484.70;223612;183;146144;-64
2023/07/20 10:49:35;;;;;;;4.30;2.00;;;;;;;24.62;45.14;98484.38;223656;183;138406;-65
2023/07/20 10:54:48;;;;;;;9.00;2.20;;;;;;;24.73;43.77;98486.09;223683;183;136116;-65
2023/07/20 10:59:51;;;;;;;5.90;2.30;;;;;;;24.84;43.67;98480.55;223618;183;145433;-64
2023/07/20 11:04:55;;;;;;;3.30;2.30;;;;;;;24.72;43.51;98477.70;223750;182;139828;-64
2023/07/20 11:10:14;;;;;;;3.20;2.20;;;;;;;24.71;43.91;98474.23;223579;183;136692;-64
2023/07/20 11:15:21;;;;;;;8.00;2.30;;;;;;;24.90;42.46;98475.04;223640;182;145239;-66
2023/07/20 11:20:24;;;;;;;8.70;2.60;;;;;;;24.89;42.78;98480.31;223626;183;138321;-65
2023/07/20 11:25:36;;;;;;;4.80;2.10;;;;;;;24.67;43.55;98481.65;223667;182;136361;-67
2023/07/20 11:30:40;;;;;;;6.30;2.80;;;;;;;24.57;44.31;98475.21;223641;182;146050;-66
2023/07/20 11:35:46;;;;;;;7.80;3.00;;;;;;;24.86;44.51;98475.65;223642;182;141366;-65
2023/07/20 11:40:53;;;;;;;5.20;2.80;;;;;;;24.93;43.89;98475.58;223717;183;137488;-62
2023/07/20 11:45:57;;;;;;;8.70;3.10;;;;;;;24.79;44.01;98479.59;223689;182;145210;-64
2023/07/20 11:51:00;;;;;;;5.20;2.90;;;;;;;24.64;44.51;98475.80;223667;182;275865;-64
2023/07/20 11:56:04;;;;;;;7.30;3.10;;;;;;;24.89;45.62;98469.77;223776;182;136806;-64
2023/07/20 12:01:07;;;;;;;6.80;3.30;;;;;;;25.22;44.69;98465.98;223535;182;145087;-63
2023/07/20 12:06:10;;;;;;;7.90;3.50;;;;;;;25.54;43.73;98461.70;223621;183;138139;-64
2023/07/20 12:11:14;;;;;;;8.90;3.40;;;;;;;25.92;42.92;98457.48;223767;182;136851;-66
2023/07/20 12:16:17;;;;;;;7.40;3.60;;;;;;;26.19;42.09;98449.61;223707;183;146078;-65
2023/07/20 12:21:49;;;;;;;6.70;3.10;;;;;;;26.43;41.40;98438.27;223703;182;138253;-65
2023/07/20 12:26:58;;;;;;;6.10;2.80;;;;;;;26.63;41.22;98439.90;223708;183;137600;-64
2023/07/20 12:32:01;;;;;;;5.80;3.00;;;;;;;26.73;39.61;98428.41;222578;182;145852;-63
2023/07/20 12:37:05;;;;;;;6.70;3.10;;;;;;;26.96;39.86;98425.69;223645;182;138242;-64
2023/07/20 12:42:08;;;;;;;5.10;2.60;;;;;;;27.07;38.56;98421.65;223742;183;136775;-63
2023/07/20 12:47:11;;;;;;;7.20;2.80;;;;;;;27.16;38.21;98414.48;223823;182;144993;-63
2023/07/20 12:52:15;;;;;;;4.30;2.60;;;;;;;27.50;38.01;98410.84;223605;182;138477;-63
2023/07/20 12:57:18;;;;;;;3.10;2.20;;;;;;;27.89;37.20;98413.59;223776;182;140040;-63
2023/07/20 13:02:21;;;;;;;4.20;2.20;;;;;;;28.13;36.81;98407.42;223757;183;145885;-63
2023/07/20 13:07:33;;;;;;;2.70;2.10;;;;;;;28.39;35.38;98412.35;223814;183;138444;-63
2023/07/20 13:12:40;;;;;;;3.10;1.90;;;;;;;28.44;34.55;98402.60;223703;183;136677;-64
2023/07/20 13:17:43;;;;;;;4.50;2.10;;;;;;;28.51;33.82;98395.64;223756;183;145490;-64
2023/07/20 13:22:50;;;;;;;4.80;2.20;;;;;;;28.71;33.80;98390.58;223749;182;139158;-63
2023/07/20 14:02:09;;;;;;;4.20;1.80;;;;;;;29.33;31.83;98403.32;221269;193;665872;-62
2023/07/20 14:07:15;;;;;;;7.40;2.00;;;;;;;29.23;31.33;98410.71;223753;182;136542;-62
2023/07/20 14:12:21;;;;;;;3.40;2.00;;;;;;;29.11;31.67;98409.28;223799;182;143444;-63
2023/07/20 14:17:24;;;;;;;3.50;1.90;;;;;;;29.24;32.03;98414.59;223668;182;138089;-64
2023/07/20 14:22:28;;;;;;;4.60;1.90;;;;;;;29.49;33.08;98418.05;223756;182;136662;-64
2023/07/20 14:27:31;;;;;;;5.50;1.80;;;;;;;29.65;33.25;98418.83;223756;183;143983;-64
2023/07/20 14:32:34;;;;;;;4.80;1.70;;;;;;;29.64;33.52;98418.58;223785;182;138339;-64
2023/07/20 14:37:37;;;;;;;3.30;1.30;;;;;;;29.30;33.99;98424.08;223818;182;137632;-64
2023/07/20 14:42:41;;;;;;;5.90;1.50;;;;;;;29.00;34.52;98413.44;223858;182;143187;-64
2023/07/20 14:47:45;;;;;;;5.70;1.10;;;;;;;28.63;34.73;98409.20;223794;182;138420;-61
2023/07/20 14:52:49;;;;;;;1.80;1.20;;;;;;;28.28;35.43;98421.02;223862;180;136948;-63
2023/07/20 14:57:52;;;;;;;1.50;1.10;;;;;;;27.89;35.98;98429.65;223890;180;145823;-63
2023/07/20 15:02:55;;;;;;;4.70;0.90;;;;;;;27.50;36.48;98424.80;223685;181;138213;-62
2023/07/20 15:07:59;;;;;;;3.40;1.30;;;;;;;27.06;37.53;98428.02;223740;182;136139;-63
2023/07/20 15:13:03;;;;;;;8.10;1.30;;;;;;;26.71;37.94;98437.83;223745;181;145859;-62
2023/07/20 15:18:06;;;;;;;3.00;1.40;;;;;;;26.54;38.32;98445.46;223640;182;138139;-62
2023/07/20 15:23:10;;;;;;;2.30;1.30;;;;;;;26.51;38.15;98441.85;223777;181;137005;-63
2023/07/20 15:28:13;;;;;;;3.50;1.40;;;;;;;26.52;37.80;98448.05;223839;181;144988;-63
2023/07/20 15:33:16;;;;;;;2.50;1.70;;;;;;;26.46;38.20;98454.02;223718;181;138365;-62
2023/07/20 15:38:20;;;;;;;3.20;1.80;;;;;;;26.25;38.22;98455.77;223720;181;139430;-63
2023/07/20 15:43:23;;;;;;;5.20;1.60;;;;;;;26.03;38.43;98468.28;223730;181;146215;-62
2023/07/20 15:48:26;;;;;;;2.60;1.80;;;;;;;25.83;38.98;98469.13;223626;181;138452;-62
2023/07/20 15:53:29;;;;;;;3.50;1.90;;;;;;;25.56;39.52;98498.38;223805;181;139686;-62
2023/07/20 15:58:32;;;;;;;3.50;2.10;;;;;;;25.04;41.73;98501.69;223684;181;145000;-63
2023/07/20 16:03:35;;;;;;;8.80;2.60;;;;;;;24.54;44.56;98532.98;223620;181;138987;-63
2023/07/20 16:08:43;;;;;;;8.50;2.60;;;;;;;23.82;50.26;98584.40;223661;181;136733;-63
2023/07/20 16:13:52;;;;;;;7.10;2.50;;;;;;;23.07;53.02;98572.98;223678;181;145574;-62
2023/07/20 16:18:56;;;;;;;7.80;2.20;;;;;;;22.51;54.35;98537.92;223792;181;138463;-63
2023/07/20 16:24:00;;;;;;;4.10;2.20;;;;;;;22.23;55.42;98521.52;223784;181;136414;-62
2023/07/20 16:29:03;;;;;;;4.10;2.20;;;;;;;22.07;56.45;98517.59;223896;182;146926;-62
2023/07/20 16:34:09;;;;;;;4.40;2.40;;;;;;;21.95;57.16;98519.17;223788;181;137716;-62
2023/07/20 16:39:13;;;;;;;3.00;2.10;;;;;;;21.89;57.91;98523.92;223663;181;139382;-62
2023/07/20 16:44:19;;;;;;;4.70;1.90;;;;;;;21.82;58.64;98529.25;223784;181;145721;-62
2023/07/20 16:49:23;;;;;;;10.60;5.50;;;;;;;21.76;58.68;98539.54;223754;181;138171;-62
2023/07/20 16:54:26;;;;;;;3.60;2.10;;;;;;;21.69;58.81;98543.22;223765;181;136928;-62
2023/07/20 17:02:06;;;;;;;5.30;2.00;;;;;;;21.58;60.36;98545.82;219935;192;665874;-63
2023/07/20 17:07:09;;;;;;;4.10;2.00;;;;;;;21.50;60.38;98549.20;223829;182;139360;-63
2023/07/20 17:12:17;;;;;;;5.40;2.40;;;;;;;21.49;60.97;98550.73;223724;182;143779;-62
2023/07/20 17:17:20;;;;;;;3.10;2.00;;;;;;;21.53;60.65;98548.92;223578;182;138925;-65
2023/07/20 17:22:24;;;;;;;3.20;1.80;;;;;;;21.55;59.10;98554.94;223831;182;137066;-65
2023/07/20 17:27:27;;;;;;;2.00;1.70;;;;;;;21.53;58.17;98560.94;223763;182;143182;-65
2023/07/20 17:32:30;;;;;;;3.30;1.80;;;;;;;21.47;58.06;98558.70;223732;183;138174;-65
2023/07/20 17:37:33;;;;;;;3.00;1.70;;;;;;;21.42;58.61;98561.90;223787;182;138323;-65
2023/07/20 17:42:43;;;;;;;2.40;1.50;;;;;;;21.37;58.79;98580.09;223782;182;143134;-64
2023/07/20 17:47:53;;;;;;;2.80;1.70;;;;;;;21.69;59.62;98596.67;223663;182;138940;-65
2023/07/20 17:52:57;;;;;;;5.60;2.00;;;;;;;21.72;58.69;98594.09;223731;182;136831;-64
2023/07/20 17:58:00;;;;;;;4.40;1.90;;;;;;;21.70;59.30;98603.41;223823;182;146835;-64
2023/07/20 18:03:04;;;;;;;3.60;1.90;;;;;;;21.60;60.97;98603.69;223791;182;138248;-60
2023/07/20 18:08:08;;;;;;;4.70;2.20;;;;;;;21.52;62.00;98606.41;223723;182;137201;-62
2023/07/20 18:13:11;;;;;;;7.10;2.70;;;;;;;21.44;61.20;98613.02;223701;181;145572;-62
2023/07/20 18:18:14;;;;;;;5.90;2.80;;;;;;;21.49;61.03;98611.76;223695;181;138657;-62
2023/07/20 18:23:18;;;;;;;6.00;2.60;;;;;;;21.56;60.46;98612.75;223841;181;136975;-62
2023/07/20 18:28:21;;;;;;;6.20;1.80;;;;;;;21.61;60.56;98614.60;223710;181;146068;-62
2023/07/20 18:33:24;;;;;;;8.30;2.50;;;;;;;21.63;60.54;98617.27;223756;181;138528;-64
2023/07/20 18:38:28;;;;;;;5.30;2.30;;;;;;;21.63;60.56;98616.65;223811;181;136839;-63
2023/07/20 18:43:31;;;;;;;10.80;3.20;;;;;;;21.71;60.71;98622.97;223702;181;146010;-63
2023/07/20 18:48:34;;;;;;;12.30;4.60;;;;;;;21.91;60.91;98617.25;223660;181;138270;-64
2023/07/20 18:53:41;;;;;;;11.80;5.70;;;;;;;21.95;60.92;98621.79;223840;181;136962;-62
2023/07/20 19:02:06;;;;;;;14.50;5.60;;;;;;;22.05;61.62;98622.89;221526;193;666927;-65
2023/07/20 19:07:09;;;;;;;8.40;2.70;;;;;;;22.05;60.75;98623.06;223833;183;137772;-62
2023/07/20 19:12:18;;;;;;;4.90;2.70;;;;;;;21.89;60.54;98625.02;223698;183;143498;-62
2023/07/20 19:17:24;;;;;;;5.80;2.80;;;;;;;21.78;60.52;98630.70;223722;184;139012;-62
2023/07/20 19:22:28;;;;;;;4.00;2.40;;;;;;;21.69;60.56;98636.96;223774;183;135819;-63
2023/07/20 19:27:31;;;;;;;7.20;2.40;;;;;;;21.56;60.99;98646.88;223668;183;144011;-61
2023/07/20 19:32:34;;;;;;;5.30;2.70;;;;;;;21.37;61.40;98655.89;223823;180;138399;-63
2023/07/20 19:37:38;;;;;;;5.20;2.90;;;;;;;21.31;61.53;98660.69;223924;180;136353;-62
2023/07/20 19:42:41;;;;;;;6.90;2.90;;;;;;;21.15;62.64;98664.51;223902;181;143332;-64
2023/07/20 19:47:44;;;;;;;6.80;3.20;;;;;;;20.87;63.87;98670.99;223846;181;138915;-61
2023/07/20 19:52:50;;;;;;;4.10;2.80;;;;;;;20.68;65.63;98669.68;223813;181;136910;-66
2023/07/20 19:57:56;;;;;;;7.50;2.90;;;;;;;20.79;65.81;98681.61;223813;181;146160;-64
2023/07/20 20:03:00;;;;;;;7.30;3.10;;;;;;;20.72;65.46;98684.55;223748;182;138936;-64
2023/07/20 20:08:06;;;;;;;5.60;3.10;;;;;;;20.78;65.28;98686.98;223747;181;136259;-64
2023/07/20 20:13:10;;;;;;;4.10;3.10;;;;;;;20.92;64.93;98686.88;223777;182;145297;-64
2023/07/20 20:18:14;;;;;;;7.20;3.10;;;;;;;20.97;64.64;98685.60;223649;181;138136;-64
2023/07/20 20:23:19;;;;;;;7.20;3.40;;;;;;;20.96;64.73;98682.45;223808;182;137591;-64
2023/07/20 20:28:24;;;;;;;5.70;3.60;;;;;;;20.91;64.54;98677.58;223703;181;145873;-64
2023/07/20 20:33:27;;;;;;;7.80;3.10;;;;;;;20.80;65.13;98679.98;223780;181;138948;-64
2023/07/20 20:38:31;;;;;;;6.10;3.00;;;;;;;20.63;66.16;98679.48;223736;181;136081;-62
2023/07/20 20:43:34;;;;;;;8.10;3.50;;;;;;;20.46;67.10;98680.75;223694;181;146148;-62
2023/07/20 20:48:41;;;;;;;9.30;3.20;;;;;;;20.35;67.68;98684.83;223675;181;138437;-61
2023/07/20 20:53:45;;;;;;;7.80;3.60;;;;;;;20.28;67.88;98686.06;223833;181;136610;-62
2023/07/20 20:58:49;;;;;;;8.80;3.90;;;;;;;20.19;68.30;98687.66;223740;181;146060;-62
2023/07/20 21:03:53;;;;;;;7.40;3.50;;;;;;;20.08;69.03;98686.27;223700;181;138859;-62
2023/07/20 21:08:57;;;;;;;9.20;3.90;;;;;;;20.00;69.32;98687.00;223700;181;137654;-62
2023/07/20 21:14:00;;;;;;;8.50;4.10;;;;;;;19.92;69.31;98683.33;223778;181;145614;-62
2023/07/20 21:19:03;;;;;;;11.10;3.80;;;;;;;19.87;69.78;98693.02;223664;181;139660;-62
2023/07/20 21:24:07;;;;;;;9.80;3.80;;;;;;;19.87;70.38;98698.66;223726;181;138830;-62
2023/07/20 21:29:12;;;;;;;8.80;3.70;;;;;;;19.83;70.34;98699.42;223819;181;146263;-62
2023/07/20 21:34:16;;;;;;;5.50;3.40;;;;;;;19.79;70.47;98704.54;223711;181;138785;-62
2023/07/20 21:39:19;;;;;;;9.30;3.50;;;;;;;19.78;70.67;98703.05;223806;181;137399;-62
2023/07/20 21:44:22;;;;;;;6.60;3.40;;;;;;;19.76;70.81;98708.11;223796;181;146202;-62
2023/07/20 21:49:25;;;;;;;8.70;3.50;;;;;;;19.71;70.78;98711.17;223706;181;138441;-62
2023/07/20 21:54:29;;;;;;;3.90;2.90;;;;;;;19.69;70.97;98714.55;223809;181;137372;-62
2023/07/20 21:59:32;;;;;;;9.70;3.80;;;;;;;19.68;70.89;98722.08;223832;181;145885;-62
2023/07/20 22:04:36;;;;;;;7.50;3.40;;;;;;;19.66;70.96;98718.65;223702;181;139083;-62
2023/07/20 22:09:42;;;;;;;9.50;3.30;;;;;;;19.65;70.51;98714.09;223622;181;137113;-62
2023/07/20 22:14:45;;;;;;;6.40;3.30;;;;;;;19.65;70.65;98718.03;223691;181;145397;-62
2023/07/20 22:19:48;;;;;;;10.80;4.00;;;;;;;19.58;70.68;98732.20;223657;181;139231;-62
2023/07/20 22:24:52;;;;;;;5.00;3.60;;;;;;;19.51;70.44;98726.33;223687;182;137794;-62
2023/07/20 22:29:55;;;;;;;8.60;3.60;;;;;;;19.43;70.29;98720.87;223763;181;146352;-62
2023/07/20 22:34:58;;;;;;;6.30;3.60;;;;;;;19.36;70.40;98729.44;223710;181;139006;-62
2023/07/20 22:40:05;;;;;;;8.10;4.00;;;;;;;19.34;70.41;98731.52;223637;181;139344;-62
2023/07/20 22:45:08;;;;;;;7.20;4.30;;;;;;;19.28;70.22;98727.94;223683;182;145554;-62
2023/07/20 22:50:17;;;;;;;10.90;4.10;;;;;;;19.23;70.32;98724.56;223598;181;138553;-61
2023/07/20 22:55:21;;;;;;;4.80;4.00;;;;;;;19.15;70.67;98720.11;223613;181;137956;-62
2023/07/20 23:00:26;;;;;;;6.70;3.80;;;;;;;19.04;70.91;98717.38;223715;181;145709;-62
2023/07/20 23:05:30;;;;;;;7.30;3.80;;;;;;;18.99;71.03;98718.35;223738;181;138309;-62
2023/07/20 23:10:34;;;;;;;5.60;4.00;;;;;;;19.03;71.08;98717.60;223601;181;137662;-62
2023/07/20 23:15:38;;;;;;;5.10;4.40;;;;;;;19.01;71.04;98719.20;223659;181;145327;-62
2023/07/20 23:20:41;;;;;;;7.30;4.30;;;;;;;19.00;71.15;98715.39;223698;181;138420;-61
2023/07/20 23:25:51;;;;;;;11.70;4.40;;;;;;;18.95;71.35;98713.23;223804;181;136349;-62
2023/07/20 23:30:56;;;;;;;11.50;4.50;;;;;;;18.89;71.57;98713.92;223820;181;145999;-62
2023/07/20 23:36:02;;;;;;;8.10;4.00;;;;;;;18.84;71.55;98714.28;223708;182;138398;-62
2023/07/20 23:41:06;;;;;;;7.30;4.00;;;;;;;18.86;71.88;98713.89;223737;181;137280;-62
2023/07/20 23:46:10;;;;;;;9.40;4.20;;;;;;;18.89;71.88;98712.06;223805;181;145013;-62
2023/07/20 23:51:18;;;;;;;6.20;4.30;;;;;;;18.86;71.56;98710.12;223669;181;138580;-62
